createdAt,value
2022-10-04T00:00:30.921Z,12.30
2022-10-04T00:03:02.966Z,12.30
2022-10-04T00:05:29.733Z,12.20
2022-10-04T00:07:57.817Z,12.20
2022-10-04T00:10:24.551Z,12.30
2022-10-04T00:13:00.944Z,12.30
2022-10-04T00:15:29.167Z,12.30
2022-10-04T00:18:02.081Z,12.30
2022-10-04T00:20:47.521Z,12.30
2022-10-04T00:23:23.422Z,12.30
2022-10-04T00:25:50.710Z,12.30
2022-10-04T00:28:20.570Z,12.10
2022-10-04T00:31:06.392Z,12.00
2022-10-04T00:33:59.808Z,11.90
2022-10-04T00:36:29.324Z,11.80
2022-10-04T00:39:07.923Z,11.80
2022-10-04T00:41:49.842Z,11.70
2022-10-04T00:44:26.597Z,11.70
2022-10-04T00:46:53.375Z,11.60
2022-10-04T00:49:21.090Z,11.60
2022-10-04T00:52:08.086Z,11.60
2022-10-04T00:54:36.006Z,11.70
2022-10-04T00:57:07.569Z,11.60
2022-10-04T00:59:44.121Z,11.50
2022-10-04T01:02:24.476Z,11.50
2022-10-04T01:05:13.469Z,11.50
2022-10-04T01:07:47.261Z,11.60
2022-10-04T01:10:15.755Z,11.60
2022-10-04T01:12:51.737Z,11.70
2022-10-04T01:15:18.877Z,11.70
2022-10-04T01:18:07.433Z,11.70
2022-10-04T01:20:37.660Z,11.70
2022-10-04T01:23:04.398Z,11.70
2022-10-04T01:25:44.124Z,11.70
2022-10-04T01:28:10.900Z,11.80
2022-10-04T01:30:37.672Z,11.80
2022-10-04T01:33:06.983Z,11.70
2022-10-04T01:35:37.446Z,11.60
2022-10-04T01:38:06.789Z,11.60
2022-10-04T01:40:36.728Z,11.50
2022-10-04T01:43:07.624Z,11.50
2022-10-04T01:45:34.310Z,11.40
2022-10-04T01:48:01.315Z,11.30
2022-10-04T01:50:34.705Z,11.20
2022-10-04T01:53:03.204Z,11.10
2022-10-04T01:55:30.771Z,11.00
2022-10-04T01:58:09.879Z,11.00
2022-10-04T02:00:37.783Z,10.90
2022-10-04T02:03:05.224Z,10.90
2022-10-04T02:05:33.891Z,10.90
2022-10-04T02:08:03.859Z,10.90
2022-10-04T02:10:30.688Z,10.80
2022-10-04T02:12:57.478Z,10.80
2022-10-04T02:15:26.751Z,10.80
2022-10-04T02:17:53.505Z,10.80
2022-10-04T02:20:21.442Z,10.70
2022-10-04T02:22:55.030Z,10.70
2022-10-04T02:25:21.829Z,10.60
2022-10-04T02:27:51.966Z,10.60
2022-10-04T02:30:18.764Z,10.60
2022-10-04T02:32:57.790Z,10.50
2022-10-04T02:35:26.223Z,10.50
2022-10-04T02:37:59.177Z,10.50
2022-10-04T02:40:27.374Z,10.50
2022-10-04T02:42:59.878Z,10.50
2022-10-04T02:45:41.845Z,10.50
2022-10-04T02:48:27.071Z,10.50
2022-10-04T02:50:53.992Z,10.50
2022-10-04T02:53:32.513Z,10.50
2022-10-04T02:55:59.243Z,10.50
2022-10-04T02:58:26.119Z,10.40
2022-10-04T03:00:56.991Z,10.40
2022-10-04T03:03:30.267Z,10.40
2022-10-04T03:06:09.430Z,10.40
2022-10-04T03:08:38.004Z,10.30
2022-10-04T03:11:04.925Z,10.30
2022-10-04T03:13:31.649Z,10.20
2022-10-04T03:15:58.419Z,10.20
2022-10-04T03:18:25.212Z,10.20
2022-10-04T03:20:52.515Z,10.20
2022-10-04T03:23:19.263Z,10.20
2022-10-04T03:25:50.399Z,10.10
2022-10-04T03:28:17.776Z,10.20
2022-10-04T03:30:44.692Z,10.10
2022-10-04T03:33:18.065Z,10.10
2022-10-04T03:35:45.204Z,10.00
2022-10-04T03:38:12.171Z,10.00
2022-10-04T03:40:38.980Z,10.00
2022-10-04T03:43:05.731Z,10.00
2022-10-04T03:45:32.656Z,10.00
2022-10-04T03:48:05.145Z,10.00
2022-10-04T03:50:34.285Z,10.00
2022-10-04T03:53:21.273Z,10.00
2022-10-04T03:55:47.985Z,10.00
2022-10-04T03:58:15.574Z,10.00
2022-10-04T04:00:58.988Z,10.00
2022-10-04T04:03:26.460Z,10.00
2022-10-04T04:05:53.856Z,9.90
2022-10-04T04:08:28.659Z,9.90
2022-10-04T04:10:56.169Z,9.90
2022-10-04T04:13:22.915Z,9.90
2022-10-04T04:15:49.664Z,9.80
2022-10-04T04:18:17.650Z,9.80
2022-10-04T04:20:44.424Z,9.90
2022-10-04T04:23:11.924Z,9.90
2022-10-04T04:25:39.653Z,9.90
2022-10-04T04:28:14.316Z,9.90
2022-10-04T04:30:44.186Z,9.90
2022-10-04T04:33:12.653Z,9.80
2022-10-04T04:35:39.360Z,9.80
2022-10-04T04:38:15.108Z,9.70
2022-10-04T04:40:41.892Z,9.70
2022-10-04T04:43:09.820Z,9.70
2022-10-04T04:45:36.649Z,9.60
2022-10-04T04:48:04.808Z,9.70
2022-10-04T04:50:32.206Z,9.70
2022-10-04T04:53:00.340Z,9.70
2022-10-04T04:55:28.103Z,9.60
2022-10-04T04:57:56.136Z,9.70
2022-10-04T05:00:26.340Z,9.70
2022-10-04T05:02:58.620Z,9.70
2022-10-04T05:05:32.350Z,9.70
2022-10-04T05:08:14.235Z,9.70
2022-10-04T05:10:42.078Z,9.90
2022-10-04T05:13:09.154Z,10.50
2022-10-04T05:15:36.482Z,11.40
2022-10-04T05:18:03.367Z,12.10
2022-10-04T05:20:31.589Z,12.60
2022-10-04T05:22:58.308Z,13.30
2022-10-04T05:25:29.364Z,13.90
2022-10-04T05:27:56.797Z,14.40
2022-10-04T05:30:32.854Z,15.00
2022-10-04T05:33:02.348Z,15.50
2022-10-04T05:35:29.295Z,16.30
2022-10-04T05:38:18.239Z,16.80
2022-10-04T05:40:48.187Z,17.10
2022-10-04T05:43:32.607Z,17.30
2022-10-04T05:46:12.683Z,17.70
2022-10-04T05:48:39.534Z,17.90
2022-10-04T05:51:13.260Z,18.20
2022-10-04T05:53:41.228Z,18.30
2022-10-04T05:56:37.738Z,18.50
2022-10-04T05:59:26.879Z,18.20
2022-10-04T06:01:53.646Z,18.20
2022-10-04T06:04:20.376Z,18.50
2022-10-04T06:06:57.606Z,18.90
2022-10-04T06:09:33.253Z,19.60
2022-10-04T06:12:25.124Z,20.10
2022-10-04T06:14:55.034Z,20.60
2022-10-04T06:17:30.050Z,21.00
2022-10-04T06:20:02.717Z,21.50
2022-10-04T06:22:29.691Z,21.60
2022-10-04T06:24:56.445Z,21.60
2022-10-04T06:27:28.059Z,21.80
2022-10-04T06:30:09.341Z,21.80
2022-10-04T06:32:36.103Z,22.30
2022-10-04T06:35:10.751Z,22.90
2022-10-04T06:37:56.415Z,23.30
2022-10-04T06:40:41.668Z,23.40
2022-10-04T06:43:20.304Z,23.80
2022-10-04T06:45:52.845Z,24.70
2022-10-04T06:48:39.913Z,23.80
2022-10-04T06:51:18.638Z,22.50
2022-10-04T06:54:04.081Z,21.30
2022-10-04T06:56:33.578Z,20.50
2022-10-04T06:59:03.291Z,19.90
2022-10-04T07:01:33.796Z,19.60
2022-10-04T07:04:06.462Z,19.80
2022-10-04T07:06:38.512Z,19.90
2022-10-04T07:09:05.633Z,19.30
2022-10-04T07:11:44.078Z,18.80
2022-10-04T07:14:10.981Z,18.30
2022-10-04T07:16:44.284Z,18.70
2022-10-04T07:19:17.424Z,19.20
2022-10-04T07:21:50.080Z,19.80
2022-10-04T07:24:21.541Z,20.40
2022-10-04T07:26:49.269Z,20.80
2022-10-04T07:29:23.110Z,21.10
2022-10-04T07:32:05.713Z,21.60
2022-10-04T07:34:33.199Z,21.60
2022-10-04T07:37:00.544Z,21.90
2022-10-04T07:39:46.137Z,22.20
2022-10-04T07:42:19.119Z,22.50
2022-10-04T07:44:47.497Z,22.40
2022-10-04T07:47:27.936Z,22.20
2022-10-04T07:49:54.887Z,21.70
2022-10-04T07:52:21.673Z,21.30
2022-10-04T07:54:51.438Z,21.20
2022-10-04T07:57:36.762Z,21.10
2022-10-04T08:00:22.116Z,21.20
2022-10-04T08:03:04.760Z,21.60
2022-10-04T08:05:37.757Z,22.60
2022-10-04T08:08:07.583Z,23.00
2022-10-04T08:10:35.562Z,23.10
2022-10-04T08:13:16.269Z,22.80
2022-10-04T08:15:43.053Z,22.70
2022-10-04T08:18:25.080Z,22.80
2022-10-04T08:20:54.881Z,23.10
2022-10-04T08:23:21.610Z,24.00
2022-10-04T08:25:57.148Z,23.90
2022-10-04T08:28:42.357Z,23.20
2022-10-04T08:31:27.980Z,22.80
2022-10-04T08:33:57.870Z,22.80
2022-10-04T08:36:24.729Z,22.90
2022-10-04T08:38:54.224Z,22.70
2022-10-04T08:41:30.344Z,22.40
2022-10-04T08:43:57.163Z,22.20
2022-10-04T08:46:23.986Z,22.10
2022-10-04T08:48:50.746Z,22.10
2022-10-04T08:51:55.913Z,22.10
2022-10-04T08:54:25.251Z,22.30
2022-10-04T08:56:52.116Z,22.30
2022-10-04T08:59:27.848Z,22.60
2022-10-04T09:02:13.280Z,23.10
2022-10-04T09:04:48.970Z,23.90
2022-10-04T09:07:26.539Z,24.20
2022-10-04T09:09:56.068Z,24.40
2022-10-04T09:12:42.369Z,25.20
2022-10-04T09:15:20.599Z,25.90
2022-10-04T09:17:47.484Z,26.90
2022-10-04T09:20:38.362Z,28.20
2022-10-04T09:23:11.859Z,29.40
2022-10-04T09:25:41.679Z,30.30
2022-10-04T09:28:18.002Z,31.00
2022-10-04T09:30:53.953Z,32.20
2022-10-04T09:33:59.658Z,32.60
2022-10-04T09:36:45.323Z,33.00
2022-10-04T09:39:31.256Z,33.10
2022-10-04T09:42:05.119Z,32.90
2022-10-04T09:44:46.142Z,32.80
2022-10-04T09:47:31.388Z,32.70
2022-10-04T09:50:18.852Z,32.20
2022-10-04T09:52:57.365Z,31.90
2022-10-04T09:55:27.127Z,32.30
2022-10-04T09:58:12.561Z,32.70
2022-10-04T10:00:44.550Z,33.40
2022-10-04T10:03:17.651Z,34.10
2022-10-04T10:05:53.621Z,34.40
2022-10-04T10:08:22.034Z,34.20
2022-10-04T10:11:15.005Z,33.80
2022-10-04T10:13:58.753Z,33.30
2022-10-04T10:16:34.679Z,33.00
2022-10-04T10:19:01.379Z,33.50
2022-10-04T10:21:46.611Z,33.80
2022-10-04T10:24:19.663Z,34.10
2022-10-04T10:27:07.363Z,34.00
2022-10-04T10:29:39.945Z,34.10
2022-10-04T10:32:25.275Z,34.00
2022-10-04T10:35:10.644Z,33.80
2022-10-04T10:37:37.359Z,33.80
2022-10-04T10:40:22.597Z,33.60
2022-10-04T10:42:55.168Z,33.20
2022-10-04T10:45:38.166Z,32.50
2022-10-04T10:48:04.921Z,31.80
2022-10-04T10:50:58.833Z,30.30
2022-10-04T10:53:45.342Z,29.60
2022-10-04T10:56:31.077Z,29.20
2022-10-04T10:58:57.807Z,28.70
2022-10-04T11:01:24.583Z,28.10
2022-10-04T11:04:10.071Z,27.60
2022-10-04T11:06:57.122Z,27.10
2022-10-04T11:09:30.089Z,26.50
2022-10-04T11:12:15.616Z,26.00
2022-10-04T11:14:51.372Z,25.70
2022-10-04T11:17:25.733Z,25.20
2022-10-04T11:20:08.565Z,24.90
2022-10-04T11:22:38.370Z,24.30
2022-10-04T11:25:25.818Z,23.70
2022-10-04T11:28:13.947Z,23.10
2022-10-04T11:30:40.751Z,22.70
2022-10-04T11:33:26.022Z,22.50
2022-10-04T11:35:58.654Z,22.40
2022-10-04T11:38:48.439Z,22.30
2022-10-04T11:41:22.025Z,22.10
2022-10-04T11:43:52.549Z,22.00
2022-10-04T11:46:57.657Z,21.90
2022-10-04T11:49:36.070Z,22.00
2022-10-04T11:52:21.463Z,21.80
2022-10-04T11:55:08.216Z,21.50
2022-10-04T11:57:47.820Z,21.40
2022-10-04T12:00:17.155Z,21.50
2022-10-04T12:02:50.317Z,21.50
2022-10-04T12:05:22.349Z,21.60
2022-10-04T12:07:52.321Z,21.50
2022-10-04T12:10:19.055Z,21.50
2022-10-04T12:12:54.960Z,21.60
2022-10-04T12:15:31.782Z,21.60
2022-10-04T12:18:18.061Z,21.60
2022-10-04T12:21:03.561Z,21.60
2022-10-04T12:23:38.225Z,21.70
2022-10-04T12:26:08.224Z,21.70
2022-10-04T12:28:53.694Z,21.70
2022-10-04T12:31:23.234Z,21.80
2022-10-04T12:34:14.981Z,22.00
2022-10-04T12:36:53.762Z,22.20
2022-10-04T12:39:27.238Z,22.20
2022-10-04T12:41:57.037Z,22.00
2022-10-04T12:44:32.622Z,21.80
2022-10-04T12:47:11.919Z,21.50
2022-10-04T12:49:48.520Z,21.50
2022-10-04T12:52:19.784Z,21.50
2022-10-04T12:55:01.010Z,21.50
2022-10-04T12:57:27.803Z,21.30
2022-10-04T13:00:05.583Z,21.20
2022-10-04T13:02:38.357Z,21.20
2022-10-04T13:05:20.648Z,21.40
2022-10-04T13:07:51.392Z,21.60
2022-10-04T13:10:25.592Z,21.80
2022-10-04T13:13:05.640Z,22.00
2022-10-04T13:18:32.039Z,22.10
2022-10-04T13:21:05.911Z,22.00
2022-10-04T13:23:41.917Z,21.90
2022-10-04T13:26:15.620Z,21.70
2022-10-04T13:28:54.684Z,21.50
2022-10-04T13:31:33.172Z,21.30
2022-10-04T13:34:19.958Z,21.30
2022-10-04T13:36:54.268Z,21.30
2022-10-04T13:39:27.048Z,21.20
2022-10-04T13:41:56.916Z,21.20
2022-10-04T13:44:40.812Z,21.30
2022-10-04T13:47:27.114Z,21.40
2022-10-04T13:49:56.674Z,21.40
2022-10-04T13:52:44.922Z,21.40
2022-10-04T13:55:56.308Z,21.40
2022-10-04T13:58:29.060Z,21.20
2022-10-04T14:00:58.925Z,21.20
2022-10-04T14:03:32.053Z,21.20
2022-10-04T14:05:58.970Z,21.20
2022-10-04T14:08:26.099Z,21.20
2022-10-04T14:10:59.284Z,21.30
2022-10-04T14:13:28.886Z,21.40
2022-10-04T14:16:14.168Z,21.30
2022-10-04T14:18:49.839Z,21.40
2022-10-04T14:21:22.165Z,21.40
2022-10-04T14:23:51.285Z,21.40
2022-10-04T14:26:18.045Z,21.50
2022-10-04T14:29:00.040Z,21.50
2022-10-04T14:31:47.185Z,21.50
2022-10-04T14:34:20.173Z,21.50
2022-10-04T14:37:05.354Z,21.40
2022-10-04T14:39:50.586Z,21.20
2022-10-04T14:42:31.356Z,21.00
2022-10-04T14:45:04.896Z,20.90
2022-10-04T14:47:37.863Z,20.80
2022-10-04T14:50:14.586Z,20.80
2022-10-04T14:52:50.328Z,20.70
2022-10-04T14:55:29.558Z,20.60
2022-10-04T14:58:15.330Z,20.50
2022-10-04T15:01:00.745Z,20.50
2022-10-04T15:03:40.745Z,20.40
2022-10-04T15:06:25.856Z,20.40
2022-10-04T15:09:11.230Z,20.50
2022-10-04T15:11:42.875Z,20.50
2022-10-04T15:14:27.696Z,20.40
2022-10-04T15:16:55.503Z,20.30
2022-10-04T15:19:22.211Z,20.30
2022-10-04T15:21:53.543Z,20.20
2022-10-04T15:24:25.716Z,20.20
2022-10-04T15:26:58.539Z,20.10
2022-10-04T15:29:28.653Z,20.00
2022-10-04T15:32:16.076Z,19.90
2022-10-04T15:34:54.866Z,19.90
2022-10-04T15:37:36.031Z,19.80
2022-10-04T15:40:21.644Z,19.70
2022-10-04T15:42:59.815Z,19.60
2022-10-04T15:45:47.741Z,19.60
2022-10-04T15:48:33.296Z,19.50
2022-10-04T15:51:00.007Z,19.40
2022-10-04T15:53:29.732Z,19.30
2022-10-04T15:56:08.899Z,19.20
2022-10-04T15:58:41.814Z,19.00
2022-10-04T16:01:13.013Z,18.80
2022-10-04T16:03:43.573Z,18.70
2022-10-04T16:06:10.297Z,18.60
2022-10-04T16:08:55.467Z,18.50
2022-10-04T16:11:34.156Z,18.40
2022-10-04T16:14:06.903Z,18.30
2022-10-04T16:16:39.948Z,18.20
2022-10-04T16:19:19.040Z,18.10
2022-10-04T16:21:55.394Z,17.90
2022-10-04T16:24:22.223Z,17.80
2022-10-04T16:26:50.558Z,17.60
2022-10-04T16:29:33.683Z,17.50
2022-10-04T16:32:17.140Z,17.40
2022-10-04T16:34:45.529Z,17.30
2022-10-04T16:37:12.264Z,17.10
2022-10-04T16:40:00.626Z,16.90
2022-10-04T16:42:30.391Z,16.80
2022-10-04T16:45:01.756Z,16.70
2022-10-04T16:47:39.625Z,16.60
2022-10-04T16:50:10.284Z,16.40
2022-10-04T16:52:57.549Z,16.30
2022-10-04T16:55:27.387Z,16.10
2022-10-04T16:58:13.851Z,16.10
2022-10-04T17:00:40.664Z,16.00
2022-10-04T17:03:16.163Z,15.90
2022-10-04T17:05:49.054Z,15.80
2022-10-04T17:08:18.356Z,15.70
2022-10-04T17:10:45.100Z,15.60
2022-10-04T17:13:14.609Z,15.60
2022-10-04T17:15:47.935Z,15.50
2022-10-04T17:18:19.728Z,15.50
2022-10-04T17:20:57.104Z,15.40
2022-10-04T17:23:31.693Z,15.40
2022-10-04T17:26:07.399Z,15.30
2022-10-04T17:28:49.756Z,15.20
2022-10-04T17:31:18.292Z,15.10
2022-10-04T17:33:54.240Z,15.10
2022-10-04T17:36:26.252Z,15.10
2022-10-04T17:38:56.007Z,15.00
2022-10-04T17:41:40.812Z,15.00
2022-10-04T17:44:16.504Z,15.00
2022-10-04T17:46:43.393Z,14.90
2022-10-04T17:49:32.476Z,14.90
2022-10-04T17:52:20.316Z,14.90
2022-10-04T17:55:07.403Z,14.80
2022-10-04T17:57:49.392Z,14.70
2022-10-04T18:00:17.384Z,14.70
2022-10-04T18:02:47.265Z,14.70
2022-10-04T18:05:15.578Z,14.60
2022-10-04T18:07:44.104Z,14.60
2022-10-04T18:10:24.640Z,14.60
2022-10-04T18:12:57.449Z,14.50
2022-10-04T18:15:26.676Z,14.50
2022-10-04T18:18:04.758Z,14.50
2022-10-04T18:20:32.802Z,14.40
2022-10-04T18:23:21.347Z,14.40
2022-10-04T18:25:49.048Z,14.30
2022-10-04T18:28:20.911Z,14.30
2022-10-04T18:30:48.588Z,14.30
2022-10-04T18:33:15.648Z,14.20
2022-10-04T18:36:04.559Z,14.20
2022-10-04T18:38:31.868Z,14.30
2022-10-04T18:41:13.220Z,14.20
2022-10-04T18:44:00.209Z,14.10
2022-10-04T18:46:29.064Z,14.10
2022-10-04T18:48:57.267Z,14.00
2022-10-04T18:51:31.058Z,14.00
2022-10-04T18:54:01.420Z,13.90
2022-10-04T18:56:33.803Z,13.90
2022-10-04T18:59:38.515Z,13.90
2022-10-04T19:02:14.248Z,13.80
2022-10-04T19:04:45.279Z,13.70
2022-10-04T19:07:32.262Z,13.60
2022-10-04T19:10:16.460Z,13.50
2022-10-04T19:12:43.193Z,13.50
2022-10-04T19:15:17.984Z,13.50
2022-10-04T19:17:59.884Z,13.40
2022-10-04T19:20:36.540Z,13.30
2022-10-04T19:23:07.302Z,13.30
2022-10-04T19:25:39.378Z,13.20
2022-10-04T19:28:06.319Z,13.20
2022-10-04T19:30:51.869Z,13.10
2022-10-04T19:33:37.366Z,13.10
2022-10-04T19:36:16.386Z,13.10
2022-10-04T19:38:43.126Z,13.10
2022-10-04T19:41:16.080Z,13.00
2022-10-04T19:43:45.668Z,12.90
2022-10-04T19:46:18.432Z,12.90
2022-10-04T19:48:50.053Z,12.80
2022-10-04T19:51:37.055Z,12.80
2022-10-04T19:54:10.867Z,12.80
2022-10-04T19:56:49.743Z,12.70
2022-10-04T19:59:27.430Z,12.60
2022-10-04T20:01:54.222Z,12.60
2022-10-04T20:04:35.951Z,12.50
2022-10-04T20:07:03.346Z,12.50
2022-10-04T20:09:30.053Z,12.50
2022-10-04T20:11:56.845Z,12.50
2022-10-04T20:14:23.588Z,12.50
2022-10-04T20:17:01.965Z,12.50
2022-10-04T20:19:28.701Z,12.40
2022-10-04T20:21:55.790Z,12.40
2022-10-04T20:24:37.823Z,12.40
2022-10-04T20:27:09.265Z,12.40
2022-10-04T20:29:35.997Z,12.40
2022-10-04T20:32:04.184Z,12.40
2022-10-04T20:34:33.284Z,12.40
2022-10-04T20:37:00.031Z,12.30
2022-10-04T20:39:41.990Z,12.20
2022-10-04T20:42:22.891Z,12.20
2022-10-04T20:44:56.656Z,12.20
2022-10-04T20:47:29.600Z,12.20
2022-10-04T20:49:58.111Z,12.20
2022-10-04T20:52:26.384Z,12.10
2022-10-04T20:54:53.492Z,12.00
2022-10-04T20:57:23.862Z,11.90
2022-10-04T20:59:54.652Z,11.90
2022-10-04T21:02:21.731Z,11.90
2022-10-04T21:04:52.147Z,12.00
2022-10-04T21:07:22.504Z,11.90
2022-10-04T21:09:49.447Z,11.80
2022-10-04T21:12:36.432Z,11.80
2022-10-04T21:15:21.648Z,11.80
2022-10-04T21:18:07.561Z,11.80
2022-10-04T21:20:43.456Z,11.80
2022-10-04T21:23:30.333Z,11.80
2022-10-04T21:26:17.402Z,11.80
2022-10-04T21:28:44.149Z,11.70
2022-10-04T21:31:10.974Z,11.70
2022-10-04T21:33:37.841Z,11.60
2022-10-04T21:36:04.755Z,11.60
2022-10-04T21:38:31.560Z,11.50
2022-10-04T21:40:58.339Z,11.50
2022-10-04T21:43:25.136Z,11.50
2022-10-04T21:45:52.039Z,11.50
2022-10-04T21:48:21.883Z,11.50
2022-10-04T21:50:49.517Z,11.50
2022-10-04T21:53:16.302Z,11.50
2022-10-04T21:55:43.030Z,11.50
2022-10-04T21:58:09.758Z,11.50
2022-10-04T22:00:36.572Z,11.40
2022-10-04T22:03:03.459Z,11.40
2022-10-04T22:05:30.191Z,11.40
2022-10-04T22:07:58.322Z,11.40
2022-10-04T22:10:25.071Z,11.40
2022-10-04T22:12:56.822Z,11.40
2022-10-04T22:15:24.536Z,11.40
2022-10-04T22:17:51.296Z,11.30
2022-10-04T22:20:18.136Z,11.30
2022-10-04T22:22:44.911Z,11.20
2022-10-04T22:25:19.086Z,11.20
2022-10-04T22:27:46.308Z,11.20
2022-10-04T22:30:18.162Z,11.20
2022-10-04T22:32:45.799Z,11.20
2022-10-04T22:35:13.500Z,11.10
2022-10-04T22:37:40.354Z,11.10
2022-10-04T22:40:09.152Z,11.00
2022-10-04T22:42:35.901Z,11.00
2022-10-04T22:45:02.636Z,10.90
2022-10-04T22:47:29.710Z,10.90
2022-10-04T22:49:57.637Z,10.90
2022-10-04T22:52:24.603Z,10.80
2022-10-04T22:54:52.389Z,10.70
2022-10-04T22:57:19.225Z,10.70
2022-10-04T22:59:47.163Z,10.60
2022-10-04T23:02:17.546Z,10.60
2022-10-04T23:04:54.261Z,10.60
2022-10-04T23:07:21.202Z,10.60
2022-10-04T23:09:48.039Z,10.60
2022-10-04T23:12:14.820Z,10.60
2022-10-04T23:14:41.798Z,10.60
2022-10-04T23:17:34.614Z,10.60
2022-10-04T23:20:01.924Z,10.60
2022-10-04T23:22:29.220Z,10.60
2022-10-04T23:24:56.083Z,10.60
2022-10-04T23:27:22.824Z,10.50
2022-10-04T23:29:50.629Z,10.50
2022-10-04T23:32:17.600Z,10.50
2022-10-04T23:34:45.486Z,10.50
2022-10-04T23:37:16.567Z,10.50
2022-10-04T23:39:43.420Z,10.50
2022-10-04T23:42:18.137Z,10.40
2022-10-04T23:44:44.899Z,10.40
2022-10-04T23:47:11.821Z,10.40
2022-10-04T23:49:38.575Z,10.30
2022-10-04T23:52:05.884Z,10.30
2022-10-04T23:54:32.619Z,10.30
2022-10-04T23:56:59.403Z,10.30
2022-10-04T23:59:26.137Z,10.30
